KPCD/PCD METAR and TAF weather

Enter ICAO airport designator
Station Type Date Time Source
KPCD METAR 2018/12/13 08:35 UTC NOAA

KPCD 130835Z AUTO 19008KT 10SM OVC025 06/05 A2998 RMK AO2 T00640047


Station Type Date Time Source
KPCD Decoded METAR 2018/12/13 08:35 UTC NOAA

Station name not available
Dec 13, 2018 - 03:35 AM EST / 2018.12.13 0835 UTC
Wind: from the S (190 degrees) at 9 MPH (8 KT):0
Visibility: 10 mile(s):0
Sky conditions: overcast
Temperature: 43.5 F (6.4 C)
Dew Point: 40.5 F (4.7 C)
Relative Humidity: 88%
Pressure (altimeter): 29.98 in. Hg (1015 hPa)
ob: KPCD 130835Z AUTO 19008KT 10SM OVC025 06/05 A2998 RMK AO2 T00640047
cycle: 8

Station Type Date Time Source
KPCD TAF UTC NOAA

Error!


Example: see airport list